Terminal Aerodrome Forecast
Issued by NWS Shreveport, LA

Home | Current Version | Previous Version | Text Only | Print | Product List | Glossary On
Versions: 1 2 3 4 5 6 7 8 9 10 11 12 13 14 15 16 17 18
000
FTUS44 KSHV 292337
TAFELD
TAF
KELD 292337Z 3000/3024 14008KT P6SM VCTS BKN050CB
      TEMPO 3000/3002 3SM +TSRA BKN020 OVC050CB
     FM300300 18005KT P6SM SCT050 OVC250
     FM300800 20008KT P6SM OVC015
     FM301400 27008KT P6SM BKN100=

USA.gov is the U.S. government's official web portal to all federal, state and local government web resources and services.